sensor_id;sensor_type;location;lat;lon;timestamp;pressure;altitude;pressure_sealevel;temperature;humidity
20930;BME280;21895;47.072;15.132;2023-02-28T00:02:07;97545.00;;;1.52;57.31
20930;BME280;21895;47.072;15.132;2023-02-28T00:04:33;97551.00;;;1.57;57.36
20930;BME280;21895;47.072;15.132;2023-02-28T00:07:00;97549.00;;;1.33;58.13
20930;BME280;21895;47.072;15.132;2023-02-28T00:09:26;97540.00;;;1.31;58.81
20930;BME280;21895;47.072;15.132;2023-02-28T00:11:53;97549.00;;;1.52;58.15
20930;BME280;21895;47.072;15.132;2023-02-28T00:14:19;97548.00;;;1.52;57.78
20930;BME280;21895;47.072;15.132;2023-02-28T00:16:46;97542.00;;;1.55;57.84
20930;BME280;21895;47.072;15.132;2023-02-28T00:19:13;97549.00;;;1.67;58.17
20930;BME280;21895;47.072;15.132;2023-02-28T00:21:39;97553.00;;;1.68;57.75
20930;BME280;21895;47.072;15.132;2023-02-28T00:24:07;97565.00;;;1.62;58.07
20930;BME280;21895;47.072;15.132;2023-02-28T00:26:33;97559.00;;;1.54;58.24
20930;BME280;21895;47.072;15.132;2023-02-28T00:29:00;97550.00;;;1.63;58.28
20930;BME280;21895;47.072;15.132;2023-02-28T00:31:26;97556.00;;;1.60;57.96
20930;BME280;21895;47.072;15.132;2023-02-28T00:33:53;97555.00;;;1.73;57.58
20930;BME280;21895;47.072;15.132;2023-02-28T00:36:19;97565.00;;;1.67;57.54
20930;BME280;21895;47.072;15.132;2023-02-28T00:38:46;97562.00;;;1.67;57.96
20930;BME280;21895;47.072;15.132;2023-02-28T00:41:12;97550.00;;;1.74;57.48
20930;BME280;21895;47.072;15.132;2023-02-28T00:43:39;97556.00;;;1.81;57.36
20930;BME280;21895;47.072;15.132;2023-02-28T00:46:06;97554.00;;;1.74;57.75
20930;BME280;21895;47.072;15.132;2023-02-28T00:48:33;97554.00;;;1.77;57.97
20930;BME280;21895;47.072;15.132;2023-02-28T00:51:00;97555.00;;;1.90;57.85
20930;BME280;21895;47.072;15.132;2023-02-28T00:53:27;97551.00;;;1.87;58.38
20930;BME280;21895;47.072;15.132;2023-02-28T00:55:54;97555.00;;;1.92;58.83
20930;BME280;21895;47.072;15.132;2023-02-28T00:58:20;97560.00;;;1.93;59.17
20930;BME280;21895;47.072;15.132;2023-02-28T01:00:47;97554.00;;;2.06;59.00
20930;BME280;21895;47.072;15.132;2023-02-28T01:03:17;97552.00;;;2.05;58.68
20930;BME280;21895;47.072;15.132;2023-02-28T01:05:44;97557.00;;;2.05;58.10
20930;BME280;21895;47.072;15.132;2023-02-28T01:08:12;97550.00;;;2.15;56.98
20930;BME280;21895;47.072;15.132;2023-02-28T01:10:40;97548.00;;;2.18;55.76
20930;BME280;21895;47.072;15.132;2023-02-28T01:13:06;97549.00;;;2.08;56.10
20930;BME280;21895;47.072;15.132;2023-02-28T01:15:33;97547.00;;;1.87;56.14
20930;BME280;21895;47.072;15.132;2023-02-28T01:17:59;97552.00;;;1.87;55.71
20930;BME280;21895;47.072;15.132;2023-02-28T01:20:26;97546.00;;;1.84;55.92
20930;BME280;21895;47.072;15.132;2023-02-28T01:22:52;97547.00;;;1.89;55.63
20930;BME280;21895;47.072;15.132;2023-02-28T01:25:19;97539.00;;;1.92;55.52
20930;BME280;21895;47.072;15.132;2023-02-28T01:27:45;97546.00;;;2.07;55.27
20930;BME280;21895;47.072;15.132;2023-02-28T01:30:12;97539.00;;;2.11;54.86
20930;BME280;21895;47.072;15.132;2023-02-28T01:32:39;97540.00;;;2.09;54.39
20930;BME280;21895;47.072;15.132;2023-02-28T01:35:06;97539.00;;;1.90;55.11
20930;BME280;21895;47.072;15.132;2023-02-28T01:37:32;97542.00;;;1.87;55.32
20930;BME280;21895;47.072;15.132;2023-02-28T01:39:59;97536.00;;;1.93;55.03
20930;BME280;21895;47.072;15.132;2023-02-28T01:42:25;97544.00;;;1.98;54.84
20930;BME280;21895;47.072;15.132;2023-02-28T01:45:03;97536.00;;;1.80;55.53
20930;BME280;21895;47.072;15.132;2023-02-28T01:47:39;97534.00;;;1.92;55.28
20930;BME280;21895;47.072;15.132;2023-02-28T01:50:14;97529.00;;;1.92;55.45
20930;BME280;21895;47.072;15.132;2023-02-28T01:52:42;97533.00;;;1.87;55.67
20930;BME280;21895;47.072;15.132;2023-02-28T01:55:12;97541.00;;;1.87;55.84
20930;BME280;21895;47.072;15.132;2023-02-28T01:57:49;97534.00;;;2.00;55.81
20930;BME280;21895;47.072;15.132;2023-02-28T02:00:22;97527.00;;;1.94;55.28
20930;BME280;21895;47.072;15.132;2023-02-28T02:02:54;97534.00;;;2.04;55.00
20930;BME280;21895;47.072;15.132;2023-02-28T02:05:27;97528.00;;;1.79;56.52
20930;BME280;21895;47.072;15.132;2023-02-28T02:08:03;97523.00;;;1.87;56.37
20930;BME280;21895;47.072;15.132;2023-02-28T02:10:50;97529.00;;;1.84;56.41
20930;BME280;21895;47.072;15.132;2023-02-28T02:25:19;97528.00;;;1.79;56.49
20930;BME280;21895;47.072;15.132;2023-02-28T02:38:10;97526.00;;;1.67;57.08
20930;BME280;21895;47.072;15.132;2023-02-28T02:46:00;97528.00;;;1.82;57.01
20930;BME280;21895;47.072;15.132;2023-02-28T02:48:33;97526.00;;;1.82;57.31
20930;BME280;21895;47.072;15.132;2023-02-28T02:51:07;97532.00;;;1.83;57.60
20930;BME280;21895;47.072;15.132;2023-02-28T02:53:47;97529.00;;;1.82;57.64
20930;BME280;21895;47.072;15.132;2023-02-28T02:56:20;97525.00;;;1.81;57.52
20930;BME280;21895;47.072;15.132;2023-02-28T02:58:53;97529.00;;;1.91;56.74
20930;BME280;21895;47.072;15.132;2023-02-28T03:01:24;97522.00;;;1.81;56.57
20930;BME280;21895;47.072;15.132;2023-02-28T03:04:16;97531.00;;;1.83;57.24
20930;BME280;21895;47.072;15.132;2023-02-28T03:06:44;97531.00;;;1.85;57.60
20930;BME280;21895;47.072;15.132;2023-02-28T03:09:10;97527.00;;;1.91;58.09
20930;BME280;21895;47.072;15.132;2023-02-28T03:11:39;97532.00;;;2.01;57.94
20930;BME280;21895;47.072;15.132;2023-02-28T03:15:11;97540.00;;;2.14;58.38
20930;BME280;21895;47.072;15.132;2023-02-28T03:18:08;97528.00;;;2.21;57.66
20930;BME280;21895;47.072;15.132;2023-02-28T03:23:38;97528.00;;;2.29;57.40
20930;BME280;21895;47.072;15.132;2023-02-28T03:26:21;97527.00;;;2.32;57.63
20930;BME280;21895;47.072;15.132;2023-02-28T03:29:21;97537.00;;;2.33;57.85
20930;BME280;21895;47.072;15.132;2023-02-28T03:31:56;97535.00;;;2.16;57.92
20930;BME280;21895;47.072;15.132;2023-02-28T03:34:37;97537.00;;;2.23;58.97
20930;BME280;21895;47.072;15.132;2023-02-28T03:37:20;97537.00;;;2.31;59.11
20930;BME280;21895;47.072;15.132;2023-02-28T03:40:00;97537.00;;;2.24;60.19
20930;BME280;21895;47.072;15.132;2023-02-28T03:42:31;97534.00;;;2.28;60.01
20930;BME280;21895;47.072;15.132;2023-02-28T03:45:35;97532.00;;;2.20;60.40
20930;BME280;21895;47.072;15.132;2023-02-28T03:48:17;97538.00;;;2.14;60.64
20930;BME280;21895;47.072;15.132;2023-02-28T03:50:49;97533.00;;;2.17;61.11
20930;BME280;21895;47.072;15.132;2023-02-28T03:53:35;97535.00;;;2.23;61.02
20930;BME280;21895;47.072;15.132;2023-02-28T03:59:06;97534.00;;;2.16;61.16
20930;BME280;21895;47.072;15.132;2023-02-28T04:01:46;97539.00;;;2.13;61.35
20930;BME280;21895;47.072;15.132;2023-02-28T04:04:15;97537.00;;;2.10;61.36
20930;BME280;21895;47.072;15.132;2023-02-28T04:06:43;97541.00;;;2.13;60.68
20930;BME280;21895;47.072;15.132;2023-02-28T04:09:13;97541.00;;;2.08;60.58
20930;BME280;21895;47.072;15.132;2023-02-28T04:11:53;97546.00;;;2.09;60.88
20930;BME280;21895;47.072;15.132;2023-02-28T04:14:22;97541.00;;;1.93;61.15
20930;BME280;21895;47.072;15.132;2023-02-28T04:16:48;97546.00;;;2.03;61.77
20930;BME280;21895;47.072;15.132;2023-02-28T04:19:17;97549.00;;;2.04;61.90
20930;BME280;21895;47.072;15.132;2023-02-28T04:21:55;97550.00;;;2.02;62.11
20930;BME280;21895;47.072;15.132;2023-02-28T04:24:25;97554.00;;;2.11;62.06
20930;BME280;21895;47.072;15.132;2023-02-28T04:26:55;97556.00;;;2.19;61.90
20930;BME280;21895;47.072;15.132;2023-02-28T04:29:29;97555.00;;;2.21;61.77
20930;BME280;21895;47.072;15.132;2023-02-28T04:31:57;97546.00;;;2.20;62.05
20930;BME280;21895;47.072;15.132;2023-02-28T04:34:28;97551.00;;;2.23;61.80
20930;BME280;21895;47.072;15.132;2023-02-28T04:36:56;97554.00;;;2.17;60.54
20930;BME280;21895;47.072;15.132;2023-02-28T04:39:39;97564.00;;;2.16;61.50
20930;BME280;21895;47.072;15.132;2023-02-28T04:42:07;97560.00;;;2.08;61.69
20930;BME280;21895;47.072;15.132;2023-02-28T04:44:33;97567.00;;;2.06;61.81
20930;BME280;21895;47.072;15.132;2023-02-28T04:47:00;97564.00;;;2.02;61.99
20930;BME280;21895;47.072;15.132;2023-02-28T04:49:26;97561.00;;;2.05;61.84
20930;BME280;21895;47.072;15.132;2023-02-28T04:51:53;97563.00;;;2.00;61.47
20930;BME280;21895;47.072;15.132;2023-02-28T04:54:19;97568.00;;;2.08;61.91
20930;BME280;21895;47.072;15.132;2023-02-28T04:56:46;97572.00;;;2.09;62.12
20930;BME280;21895;47.072;15.132;2023-02-28T04:59:14;97563.00;;;2.05;61.69
20930;BME280;21895;47.072;15.132;2023-02-28T05:01:45;97565.00;;;2.11;62.25
20930;BME280;21895;47.072;15.132;2023-02-28T05:04:12;97568.00;;;2.06;62.05
20930;BME280;21895;47.072;15.132;2023-02-28T05:06:38;97561.00;;;1.99;61.85
20930;BME280;21895;47.072;15.132;2023-02-28T05:09:05;97557.00;;;2.02;61.34
20930;BME280;21895;47.072;15.132;2023-02-28T05:11:33;97561.00;;;1.96;62.87
20930;BME280;21895;47.072;15.132;2023-02-28T05:14:11;97564.00;;;1.94;61.06
20930;BME280;21895;47.072;15.132;2023-02-28T05:16:38;97555.00;;;1.90;60.29
20930;BME280;21895;47.072;15.132;2023-02-28T05:19:04;97565.00;;;1.89;60.70
20930;BME280;21895;47.072;15.132;2023-02-28T05:21:35;97555.00;;;1.85;61.38
20930;BME280;21895;47.072;15.132;2023-02-28T05:24:12;97555.00;;;1.87;61.38
20930;BME280;21895;47.072;15.132;2023-02-28T05:26:41;97558.00;;;1.88;61.68
20930;BME280;21895;47.072;15.132;2023-02-28T05:29:09;97556.00;;;1.86;62.02
20930;BME280;21895;47.072;15.132;2023-02-28T05:31:37;97560.00;;;1.93;62.93
20930;BME280;21895;47.072;15.132;2023-02-28T05:34:04;97563.00;;;1.91;61.49
20930;BME280;21895;47.072;15.132;2023-02-28T05:36:31;97567.00;;;1.84;60.87
20930;BME280;21895;47.072;15.132;2023-02-28T05:38:58;97561.00;;;1.89;61.11
20930;BME280;21895;47.072;15.132;2023-02-28T05:41:24;97571.00;;;1.98;61.87
20930;BME280;21895;47.072;15.132;2023-02-28T05:43:52;97566.00;;;1.99;62.55
20930;BME280;21895;47.072;15.132;2023-02-28T05:46:18;97570.00;;;2.03;62.65
20930;BME280;21895;47.072;15.132;2023-02-28T05:48:48;97565.00;;;2.02;62.50
20930;BME280;21895;47.072;15.132;2023-02-28T05:51:15;97571.00;;;2.00;62.44
20930;BME280;21895;47.072;15.132;2023-02-28T05:53:42;97571.00;;;1.97;63.27
20930;BME280;21895;47.072;15.132;2023-02-28T05:56:09;97573.00;;;1.98;63.35
20930;BME280;21895;47.072;15.132;2023-02-28T05:58:35;97576.00;;;2.11;62.99
20930;BME280;21895;47.072;15.132;2023-02-28T06:01:42;97581.00;;;2.11;62.82
20930;BME280;21895;47.072;15.132;2023-02-28T06:04:16;97585.00;;;2.15;62.05
20930;BME280;21895;47.072;15.132;2023-02-28T06:06:57;97590.00;;;2.07;61.55
20930;BME280;21895;47.072;15.132;2023-02-28T06:09:24;97590.00;;;2.10;60.52
20930;BME280;21895;47.072;15.132;2023-02-28T06:11:51;97591.00;;;2.31;59.81
20930;BME280;21895;47.072;15.132;2023-02-28T06:14:20;97596.00;;;2.11;60.44
20930;BME280;21895;47.072;15.132;2023-02-28T06:16:46;97604.00;;;1.93;61.14
20930;BME280;21895;47.072;15.132;2023-02-28T06:19:13;97605.00;;;1.97;61.34
20930;BME280;21895;47.072;15.132;2023-02-28T06:21:41;97604.00;;;2.19;60.76
20930;BME280;21895;47.072;15.132;2023-02-28T06:24:08;97605.00;;;2.21;60.59
20930;BME280;21895;47.072;15.132;2023-02-28T06:26:35;97605.00;;;2.20;61.18
20930;BME280;21895;47.072;15.132;2023-02-28T06:29:02;97611.00;;;2.30;62.23
20930;BME280;21895;47.072;15.132;2023-02-28T06:31:29;97613.00;;;2.30;62.26
20930;BME280;21895;47.072;15.132;2023-02-28T06:33:56;97622.00;;;2.25;62.50
20930;BME280;21895;47.072;15.132;2023-02-28T06:36:23;97621.00;;;2.28;61.99
20930;BME280;21895;47.072;15.132;2023-02-28T06:38:49;97616.00;;;2.34;62.08
20930;BME280;21895;47.072;15.132;2023-02-28T06:41:25;97624.00;;;2.31;62.62
20930;BME280;21895;47.072;15.132;2023-02-28T06:43:53;97623.00;;;2.52;62.51
20930;BME280;21895;47.072;15.132;2023-02-28T06:46:19;97624.00;;;2.43;62.07
20930;BME280;21895;47.072;15.132;2023-02-28T06:48:46;97628.00;;;2.40;61.29
20930;BME280;21895;47.072;15.132;2023-02-28T06:51:17;97633.00;;;2.53;60.87
20930;BME280;21895;47.072;15.132;2023-02-28T06:53:46;97635.00;;;2.58;60.58
20930;BME280;21895;47.072;15.132;2023-02-28T06:56:15;97639.00;;;2.72;59.30
20930;BME280;21895;47.072;15.132;2023-02-28T06:58:46;97638.00;;;2.73;59.10
20930;BME280;21895;47.072;15.132;2023-02-28T07:01:14;97639.00;;;2.76;58.51
20930;BME280;21895;47.072;15.132;2023-02-28T07:03:40;97645.00;;;2.75;58.92
20930;BME280;21895;47.072;15.132;2023-02-28T07:06:07;97637.00;;;2.78;59.42
20930;BME280;21895;47.072;15.132;2023-02-28T07:08:34;97640.00;;;2.82;59.35
20930;BME280;21895;47.072;15.132;2023-02-28T07:11:02;97642.00;;;2.78;59.67
20930;BME280;21895;47.072;15.132;2023-02-28T07:13:29;97641.00;;;3.02;58.97
20930;BME280;21895;47.072;15.132;2023-02-28T07:16:04;97640.00;;;3.00;57.73
20930;BME280;21895;47.072;15.132;2023-02-28T07:18:32;97644.00;;;3.00;57.68
20930;BME280;21895;47.072;15.132;2023-02-28T07:21:02;97648.00;;;3.14;57.04
20930;BME280;21895;47.072;15.132;2023-02-28T07:23:28;97643.00;;;3.10;56.92
20930;BME280;21895;47.072;15.132;2023-02-28T07:25:55;97656.00;;;3.20;55.95
20930;BME280;21895;47.072;15.132;2023-02-28T07:28:21;97648.00;;;3.14;54.86
20930;BME280;21895;47.072;15.132;2023-02-28T07:30:48;97657.00;;;3.18;54.85
20930;BME280;21895;47.072;15.132;2023-02-28T07:33:15;97653.00;;;3.14;55.21
20930;BME280;21895;47.072;15.132;2023-02-28T07:35:42;97658.00;;;3.21;55.42
20930;BME280;21895;47.072;15.132;2023-02-28T07:38:08;97662.00;;;3.15;54.87
20930;BME280;21895;47.072;15.132;2023-02-28T07:40:36;97657.00;;;3.26;54.56
20930;BME280;21895;47.072;15.132;2023-02-28T07:43:03;97662.00;;;3.35;53.51
20930;BME280;21895;47.072;15.132;2023-02-28T07:45:30;97661.00;;;3.29;53.84
20930;BME280;21895;47.072;15.132;2023-02-28T07:48:01;97662.00;;;3.43;53.46
20930;BME280;21895;47.072;15.132;2023-02-28T07:50:27;97660.00;;;3.43;52.92
20930;BME280;21895;47.072;15.132;2023-02-28T07:52:58;97664.00;;;3.37;53.72
20930;BME280;21895;47.072;15.132;2023-02-28T07:55:25;97664.00;;;3.33;53.81
20930;BME280;21895;47.072;15.132;2023-02-28T07:57:51;97673.00;;;3.43;53.81
20930;BME280;21895;47.072;15.132;2023-02-28T08:00:18;97673.00;;;3.53;53.51
20930;BME280;21895;47.072;15.132;2023-02-28T08:02:45;97679.00;;;3.63;52.75
20930;BME280;21895;47.072;15.132;2023-02-28T08:05:11;97680.00;;;3.73;52.30
20930;BME280;21895;47.072;15.132;2023-02-28T08:07:38;97684.00;;;3.63;52.73
20930;BME280;21895;47.072;15.132;2023-02-28T08:10:06;97676.00;;;3.67;53.29
20930;BME280;21895;47.072;15.132;2023-02-28T08:12:33;97683.00;;;3.72;52.77
20930;BME280;21895;47.072;15.132;2023-02-28T08:14:59;97683.00;;;3.69;52.67
20930;BME280;21895;47.072;15.132;2023-02-28T08:17:26;97686.00;;;3.74;52.81
20930;BME280;21895;47.072;15.132;2023-02-28T08:19:52;97683.00;;;3.90;52.47
20930;BME280;21895;47.072;15.132;2023-02-28T08:22:19;97683.00;;;3.95;52.04
20930;BME280;21895;47.072;15.132;2023-02-28T08:24:45;97684.00;;;4.02;52.11
20930;BME280;21895;47.072;15.132;2023-02-28T08:27:12;97682.00;;;4.07;51.94
20930;BME280;21895;47.072;15.132;2023-02-28T08:29:39;97690.00;;;3.94;51.98
20930;BME280;21895;47.072;15.132;2023-02-28T08:32:07;97685.00;;;4.03;51.85
20930;BME280;21895;47.072;15.132;2023-02-28T08:34:46;97685.00;;;4.17;51.14
20930;BME280;21895;47.072;15.132;2023-02-28T08:37:14;97684.00;;;4.15;52.33
20930;BME280;21895;47.072;15.132;2023-02-28T08:39:40;97692.00;;;4.23;51.48
20930;BME280;21895;47.072;15.132;2023-02-28T08:42:07;97691.00;;;4.26;51.49
20930;BME280;21895;47.072;15.132;2023-02-28T08:44:34;97688.00;;;4.21;51.55
20930;BME280;21895;47.072;15.132;2023-02-28T08:47:00;97688.00;;;4.32;51.42
20930;BME280;21895;47.072;15.132;2023-02-28T08:49:27;97693.00;;;4.35;50.53
20930;BME280;21895;47.072;15.132;2023-02-28T08:51:54;97690.00;;;4.39;50.00
20930;BME280;21895;47.072;15.132;2023-02-28T08:54:24;97683.00;;;4.45;50.18
20930;BME280;21895;47.072;15.132;2023-02-28T08:56:50;97687.00;;;4.53;49.71
20930;BME280;21895;47.072;15.132;2023-02-28T08:59:16;97689.00;;;4.51;50.45
20930;BME280;21895;47.072;15.132;2023-02-28T09:01:43;97687.00;;;4.53;49.72
20930;BME280;21895;47.072;15.132;2023-02-28T09:04:10;97692.00;;;4.43;50.54
20930;BME280;21895;47.072;15.132;2023-02-28T09:06:38;97690.00;;;4.61;49.55
20930;BME280;21895;47.072;15.132;2023-02-28T09:09:05;97695.00;;;4.53;49.93
20930;BME280;21895;47.072;15.132;2023-02-28T09:11:34;97691.00;;;4.59;49.75
20930;BME280;21895;47.072;15.132;2023-02-28T09:14:02;97694.00;;;4.60;48.89
20930;BME280;21895;47.072;15.132;2023-02-28T09:16:31;97701.00;;;4.78;49.88
20930;BME280;21895;47.072;15.132;2023-02-28T09:18:59;97690.00;;;4.87;48.67
20930;BME280;21895;47.072;15.132;2023-02-28T09:21:26;97687.00;;;4.97;48.23
20930;BME280;21895;47.072;15.132;2023-02-28T09:23:53;97692.00;;;4.97;48.94
20930;BME280;21895;47.072;15.132;2023-02-28T09:26:26;97696.00;;;5.21;48.66
20930;BME280;21895;47.072;15.132;2023-02-28T09:29:04;97689.00;;;5.16;48.54
20930;BME280;21895;47.072;15.132;2023-02-28T09:31:31;97690.00;;;5.32;48.18
20930;BME280;21895;47.072;15.132;2023-02-28T09:33:58;97694.00;;;5.13;48.60
20930;BME280;21895;47.072;15.132;2023-02-28T09:36:28;97702.00;;;5.19;48.53
20930;BME280;21895;47.072;15.132;2023-02-28T09:39:10;97691.00;;;5.21;48.53
20930;BME280;21895;47.072;15.132;2023-02-28T09:41:42;97695.00;;;5.30;49.07
20930;BME280;21895;47.072;15.132;2023-02-28T09:45:00;97695.00;;;5.33;48.82
20930;BME280;21895;47.072;15.132;2023-02-28T09:47:41;97691.00;;;5.39;47.98
20930;BME280;21895;47.072;15.132;2023-02-28T09:50:36;97697.00;;;5.41;47.95
20930;BME280;21895;47.072;15.132;2023-02-28T09:53:26;97687.00;;;5.39;48.63
20930;BME280;21895;47.072;15.132;2023-02-28T09:56:07;97682.00;;;5.38;48.19
20930;BME280;21895;47.072;15.132;2023-02-28T10:01:37;97685.00;;;5.50;48.51
20930;BME280;21895;47.072;15.132;2023-02-28T10:05:05;97690.00;;;5.95;47.20
20930;BME280;21895;47.072;15.132;2023-02-28T10:08:12;97686.00;;;5.77;47.06
20930;BME280;21895;47.072;15.132;2023-02-28T10:10:55;97686.00;;;5.81;47.17
20930;BME280;21895;47.072;15.132;2023-02-28T10:13:44;97687.00;;;5.87;46.67
20930;BME280;21895;47.072;15.132;2023-02-28T10:16:19;97683.00;;;5.91;46.16
20930;BME280;21895;47.072;15.132;2023-02-28T10:18:54;97683.00;;;6.01;45.90
20930;BME280;21895;47.072;15.132;2023-02-28T10:21:36;97686.00;;;6.00;45.98
20930;BME280;21895;47.072;15.132;2023-02-28T10:29:09;97681.00;;;6.19;46.18
20930;BME280;21895;47.072;15.132;2023-02-28T10:31:36;97677.00;;;6.32;44.87
20930;BME280;21895;47.072;15.132;2023-02-28T10:34:04;97676.00;;;6.49;44.57
20930;BME280;21895;47.072;15.132;2023-02-28T10:36:32;97675.00;;;6.47;44.68
20930;BME280;21895;47.072;15.132;2023-02-28T10:39:37;97674.00;;;6.44;44.18
20930;BME280;21895;47.072;15.132;2023-02-28T10:42:22;97669.00;;;6.48;44.78
20930;BME280;21895;47.072;15.132;2023-02-28T10:45:19;97673.00;;;6.38;44.92
20930;BME280;21895;47.072;15.132;2023-02-28T10:52:40;97677.00;;;6.71;44.90
20930;BME280;21895;47.072;15.132;2023-02-28T10:55:24;97660.00;;;6.82;44.79
20930;BME280;21895;47.072;15.132;2023-02-28T10:57:52;97660.00;;;6.88;44.00
20930;BME280;21895;47.072;15.132;2023-02-28T11:00:23;97655.00;;;7.00;44.01
20930;BME280;21895;47.072;15.132;2023-02-28T11:02:51;97661.00;;;7.09;43.39
20930;BME280;21895;47.072;15.132;2023-02-28T11:05:33;97654.00;;;7.01;44.68
20930;BME280;21895;47.072;15.132;2023-02-28T11:08:17;97654.00;;;7.11;43.84
20930;BME280;21895;47.072;15.132;2023-02-28T11:11:00;97651.00;;;7.29;43.93
20930;BME280;21895;47.072;15.132;2023-02-28T11:13:34;97644.00;;;7.30;43.07
20930;BME280;21895;47.072;15.132;2023-02-28T11:16:06;97641.00;;;7.30;43.38
20930;BME280;21895;47.072;15.132;2023-02-28T11:18:53;97649.00;;;7.30;43.67
20930;BME280;21895;47.072;15.132;2023-02-28T11:21:31;97636.00;;;7.35;42.96
20930;BME280;21895;47.072;15.132;2023-02-28T11:24:53;97636.00;;;7.49;42.70
20930;BME280;21895;47.072;15.132;2023-02-28T11:28:06;97633.00;;;7.64;42.00
20930;BME280;21895;47.072;15.132;2023-02-28T11:31:09;97625.00;;;7.56;41.40
20930;BME280;21895;47.072;15.132;2023-02-28T11:33:54;97613.00;;;7.53;41.21
20930;BME280;21895;47.072;15.132;2023-02-28T11:36:29;97628.00;;;7.44;42.93
20930;BME280;21895;47.072;15.132;2023-02-28T11:39:09;97620.00;;;7.33;42.04
20930;BME280;21895;47.072;15.132;2023-02-28T11:46:59;97604.00;;;7.36;40.70
20930;BME280;21895;47.072;15.132;2023-02-28T11:55:57;97601.00;;;7.34;42.14
20930;BME280;21895;47.072;15.132;2023-02-28T12:04:42;97596.00;;;7.37;42.99
20930;BME280;21895;47.072;15.132;2023-02-28T12:09:20;97593.00;;;7.36;43.20
20930;BME280;21895;47.072;15.132;2023-02-28T12:12:36;97587.00;;;7.39;42.68
20930;BME280;21895;47.072;15.132;2023-02-28T12:16:28;97589.00;;;7.28;42.15
20930;BME280;21895;47.072;15.132;2023-02-28T12:19:35;97585.00;;;7.46;41.98
20930;BME280;21895;47.072;15.132;2023-02-28T12:22:29;97584.00;;;7.51;42.36
20930;BME280;21895;47.072;15.132;2023-02-28T12:26:41;97584.00;;;7.22;42.92
20930;BME280;21895;47.072;15.132;2023-02-28T12:31:06;97574.00;;;6.96;43.11
20930;BME280;21895;47.072;15.132;2023-02-28T12:33:42;97573.00;;;7.41;43.34
20930;BME280;21895;47.072;15.132;2023-02-28T12:36:17;97571.00;;;7.57;41.56
20930;BME280;21895;47.072;15.132;2023-02-28T12:42:40;97567.00;;;7.24;41.99
20930;BME280;21895;47.072;15.132;2023-02-28T12:45:43;97563.00;;;7.40;42.75
20930;BME280;21895;47.072;15.132;2023-02-28T12:48:40;97564.00;;;7.59;41.89
20930;BME280;21895;47.072;15.132;2023-02-28T12:51:10;97561.00;;;7.33;44.01
20930;BME280;21895;47.072;15.132;2023-02-28T12:59:30;97563.00;;;7.10;43.26
20930;BME280;21895;47.072;15.132;2023-02-28T13:04:43;97556.00;;;7.20;43.55
20930;BME280;21895;47.072;15.132;2023-02-28T13:08:28;97555.00;;;7.47;43.17
20930;BME280;21895;47.072;15.132;2023-02-28T13:11:00;97552.00;;;7.53;43.05
20930;BME280;21895;47.072;15.132;2023-02-28T13:13:31;97555.00;;;7.47;43.15
20930;BME280;21895;47.072;15.132;2023-02-28T13:16:19;97548.00;;;7.26;44.64
20930;BME280;21895;47.072;15.132;2023-02-28T13:18:47;97541.00;;;7.40;43.08
20930;BME280;21895;47.072;15.132;2023-02-28T13:24:12;97538.00;;;7.38;43.15
20930;BME280;21895;47.072;15.132;2023-02-28T13:27:39;97544.00;;;6.94;44.47
20930;BME280;21895;47.072;15.132;2023-02-28T13:34:15;97539.00;;;7.09;43.79
20930;BME280;21895;47.072;15.132;2023-02-28T13:36:41;97531.00;;;7.19;43.90
20930;BME280;21895;47.072;15.132;2023-02-28T13:47:23;97534.00;;;6.79;44.43
20930;BME280;21895;47.072;15.132;2023-02-28T13:49:53;97528.00;;;6.56;45.80
20930;BME280;21895;47.072;15.132;2023-02-28T13:52:23;97528.00;;;6.59;45.36
20930;BME280;21895;47.072;15.132;2023-02-28T14:06:28;97528.00;;;6.91;45.20
20930;BME280;21895;47.072;15.132;2023-02-28T14:10:06;97531.00;;;6.76;45.77
20930;BME280;21895;47.072;15.132;2023-02-28T14:17:55;97530.00;;;6.44;46.99
20930;BME280;21895;47.072;15.132;2023-02-28T14:20:27;97529.00;;;6.61;47.16
20930;BME280;21895;47.072;15.132;2023-02-28T14:36:35;97509.00;;;6.46;47.62
20930;BME280;21895;47.072;15.132;2023-02-28T14:39:17;97504.00;;;6.28;47.56
20930;BME280;21895;47.072;15.132;2023-02-28T14:41:45;97502.00;;;6.40;46.90
20930;BME280;21895;47.072;15.132;2023-02-28T14:44:24;97501.00;;;6.25;47.71
20930;BME280;21895;47.072;15.132;2023-02-28T14:47:02;97501.00;;;6.25;47.94
20930;BME280;21895;47.072;15.132;2023-02-28T14:49:41;97504.00;;;6.28;47.69
20930;BME280;21895;47.072;15.132;2023-02-28T14:52:27;97509.00;;;6.54;47.00
20930;BME280;21895;47.072;15.132;2023-02-28T14:55:06;97504.00;;;6.47;47.46
20930;BME280;21895;47.072;15.132;2023-02-28T14:57:55;97504.00;;;6.50;47.44
20930;BME280;21895;47.072;15.132;2023-02-28T15:00:27;97514.00;;;6.54;47.04
20930;BME280;21895;47.072;15.132;2023-02-28T15:02:56;97513.00;;;6.33;47.90
20930;BME280;21895;47.072;15.132;2023-02-28T15:05:34;97507.00;;;6.35;47.13
20930;BME280;21895;47.072;15.132;2023-02-28T15:08:14;97507.00;;;6.25;46.95
20930;BME280;21895;47.072;15.132;2023-02-28T15:10:57;97511.00;;;6.19;49.04
20930;BME280;21895;47.072;15.132;2023-02-28T15:13:43;97503.00;;;6.20;47.65
20930;BME280;21895;47.072;15.132;2023-02-28T15:16:20;97504.00;;;6.05;47.92
20930;BME280;21895;47.072;15.132;2023-02-28T15:18:58;97499.00;;;6.25;48.17
20930;BME280;21895;47.072;15.132;2023-02-28T15:21:33;97497.00;;;6.07;48.12
20930;BME280;21895;47.072;15.132;2023-02-28T15:24:50;97502.00;;;6.05;49.12
20930;BME280;21895;47.072;15.132;2023-02-28T15:27:25;97503.00;;;5.99;49.10
20930;BME280;21895;47.072;15.132;2023-02-28T15:30:00;97503.00;;;5.90;49.59
20930;BME280;21895;47.072;15.132;2023-02-28T15:32:36;97501.00;;;5.87;49.19
20930;BME280;21895;47.072;15.132;2023-02-28T15:35:29;97508.00;;;5.81;48.52
20930;BME280;21895;47.072;15.132;2023-02-28T15:38:00;97504.00;;;5.69;49.36
20930;BME280;21895;47.072;15.132;2023-02-28T15:40:54;97513.00;;;5.58;49.76
20930;BME280;21895;47.072;15.132;2023-02-28T15:43:31;97510.00;;;5.50;49.21
20930;BME280;21895;47.072;15.132;2023-02-28T15:46:09;97510.00;;;5.45;49.68